createdAt,value
2022-08-25T00:00:25.993Z,12.80
2022-08-25T00:01:27.020Z,12.80
2022-08-25T00:02:26.051Z,12.60
2022-08-25T00:03:25.988Z,12.80
2022-08-25T00:04:25.986Z,12.60
2022-08-25T00:05:26.085Z,13.30
2022-08-25T00:06:25.980Z,13.10
2022-08-25T00:07:25.981Z,13.10
2022-08-25T00:08:25.978Z,13.10
2022-08-25T00:09:25.978Z,13.30
2022-08-25T00:10:25.972Z,13.10
2022-08-25T00:11:25.970Z,13.70
2022-08-25T00:12:25.968Z,13.40
2022-08-25T00:13:25.966Z,14.00
2022-08-25T00:14:25.964Z,13.90
2022-08-25T00:15:25.964Z,13.70
2022-08-25T00:16:25.958Z,14.50
2022-08-25T00:17:25.958Z,13.80
2022-08-25T00:18:25.953Z,14.10
2022-08-25T00:19:25.955Z,13.90
2022-08-25T00:20:25.950Z,14.30
2022-08-25T00:21:25.947Z,14.50
2022-08-25T00:22:25.944Z,15.00
2022-08-25T00:23:25.944Z,15.10
2022-08-25T00:24:25.956Z,15.30
2022-08-25T00:25:25.941Z,15.30
2022-08-25T00:26:25.935Z,15.20
2022-08-25T00:27:25.965Z,15.60
2022-08-25T00:28:25.934Z,15.90
2022-08-25T00:29:25.932Z,13.70
2022-08-25T00:30:25.948Z,13.60
2022-08-25T00:31:37.518Z,14.10
2022-08-25T00:32:25.923Z,14.20
2022-08-25T00:33:25.920Z,14.10
2022-08-25T00:34:25.922Z,15.40
2022-08-25T00:35:25.918Z,15.30
2022-08-25T00:36:25.916Z,15.60
2022-08-25T00:37:25.912Z,16.00
2022-08-25T00:38:25.908Z,15.40
2022-08-25T00:39:25.908Z,16.60
2022-08-25T00:40:25.961Z,15.80
2022-08-25T00:41:25.904Z,15.90
2022-08-25T00:42:25.900Z,16.00
2022-08-25T00:43:25.900Z,13.60
2022-08-25T00:44:25.897Z,13.50
2022-08-25T00:45:25.892Z,14.80
2022-08-25T00:46:25.905Z,14.00
2022-08-25T00:47:25.889Z,13.70
2022-08-25T00:48:25.890Z,14.50
2022-08-25T00:49:25.885Z,15.10
2022-08-25T00:50:26.558Z,16.30
2022-08-25T00:51:25.881Z,15.80
2022-08-25T00:52:25.882Z,15.70
2022-08-25T00:53:25.875Z,15.40
2022-08-25T00:54:25.873Z,14.30
2022-08-25T00:55:25.870Z,15.60
2022-08-25T00:56:25.868Z,15.50
2022-08-25T00:57:34.061Z,15.70
2022-08-25T00:58:25.862Z,16.20
2022-08-25T00:59:25.865Z,16.50
2022-08-25T01:00:25.860Z,14.90
2022-08-25T01:01:25.924Z,14.20
2022-08-25T01:02:25.889Z,15.20
2022-08-25T01:03:32.854Z,14.00
2022-08-25T01:04:25.857Z,14.70
2022-08-25T01:05:25.848Z,14.70
2022-08-25T01:06:25.846Z,14.40
2022-08-25T01:07:25.843Z,14.90
2022-08-25T01:08:25.843Z,15.60
2022-08-25T01:09:25.839Z,15.80
2022-08-25T01:10:25.839Z,16.70
2022-08-25T01:11:25.835Z,17.10
2022-08-25T01:12:25.832Z,17.50
2022-08-25T01:13:25.833Z,17.30
2022-08-25T01:14:26.432Z,17.30
2022-08-25T01:15:25.911Z,17.50
2022-08-25T01:16:25.825Z,17.20
2022-08-25T01:17:25.820Z,17.60
2022-08-25T01:18:25.825Z,17.80
2022-08-25T01:19:25.816Z,17.50
2022-08-25T01:20:29.466Z,17.60
2022-08-25T01:21:25.810Z,17.40
2022-08-25T01:22:25.809Z,17.20
2022-08-25T01:23:25.806Z,17.60
2022-08-25T01:24:25.803Z,18.00
2022-08-25T01:25:25.800Z,17.60
2022-08-25T01:26:30.580Z,17.60
2022-08-25T01:27:25.795Z,17.80
2022-08-25T01:28:25.795Z,17.80
2022-08-25T01:29:25.791Z,17.70
2022-08-25T01:30:25.796Z,17.70
2022-08-25T01:31:25.915Z,17.10
2022-08-25T01:32:25.783Z,16.10
2022-08-25T01:33:25.780Z,16.40
2022-08-25T01:34:25.779Z,17.30
2022-08-25T01:35:25.776Z,17.70
2022-08-25T01:36:25.773Z,15.60
2022-08-25T01:37:25.775Z,14.80
2022-08-25T01:38:25.769Z,13.20
2022-08-25T01:39:25.765Z,13.60
2022-08-25T01:40:25.830Z,13.00
2022-08-25T01:41:25.762Z,12.80
2022-08-25T01:42:25.759Z,13.60
2022-08-25T01:43:25.755Z,14.10
2022-08-25T01:44:25.753Z,16.10
2022-08-25T01:45:25.751Z,16.60
2022-08-25T01:46:25.815Z,16.40
2022-08-25T01:47:25.749Z,16.10
2022-08-25T01:48:25.746Z,15.30
2022-08-25T01:49:25.741Z,15.70
2022-08-25T01:50:25.741Z,14.80
2022-08-25T01:51:25.752Z,14.00
2022-08-25T01:52:25.733Z,15.60
2022-08-25T01:53:25.732Z,17.00
2022-08-25T01:54:25.729Z,17.40
2022-08-25T01:55:25.726Z,18.50
2022-08-25T01:56:25.725Z,18.80
2022-08-25T01:57:25.722Z,19.10
2022-08-25T01:58:25.722Z,18.60
2022-08-25T01:59:25.723Z,18.30
2022-08-25T02:00:25.714Z,18.00
2022-08-25T02:01:25.803Z,16.60
2022-08-25T02:02:26.156Z,17.40
2022-08-25T02:03:25.709Z,18.50
2022-08-25T02:04:25.706Z,16.20
2022-08-25T02:05:25.701Z,16.10
2022-08-25T02:06:28.856Z,14.60
2022-08-25T02:07:25.697Z,14.50
2022-08-25T02:08:25.693Z,14.70
2022-08-25T02:09:25.691Z,13.40
2022-08-25T02:10:25.690Z,15.00
2022-08-25T02:11:25.686Z,14.10
2022-08-25T02:12:25.681Z,15.50
2022-08-25T02:13:26.823Z,16.50
2022-08-25T02:14:25.680Z,18.60
2022-08-25T02:15:25.679Z,16.90
2022-08-25T02:16:25.752Z,17.70
2022-08-25T02:17:25.673Z,18.30
2022-08-25T02:18:25.671Z,17.10
2022-08-25T02:19:25.670Z,16.60
2022-08-25T02:20:25.665Z,15.90
2022-08-25T02:21:25.661Z,15.40
2022-08-25T02:22:25.660Z,14.40
2022-08-25T02:23:25.657Z,14.80
2022-08-25T02:24:25.657Z,14.90
2022-08-25T02:25:25.657Z,15.30
2022-08-25T02:26:25.652Z,15.00
2022-08-25T02:27:25.650Z,15.20
2022-08-25T02:28:25.648Z,15.30
2022-08-25T02:29:25.643Z,16.00
2022-08-25T02:30:25.691Z,16.30
2022-08-25T02:31:25.638Z,16.00
2022-08-25T02:32:25.638Z,17.00
2022-08-25T02:33:25.634Z,17.10
2022-08-25T02:34:25.634Z,18.90
2022-08-25T02:35:25.628Z,20.50
2022-08-25T02:36:25.629Z,18.30
2022-08-25T02:37:25.632Z,17.10
2022-08-25T02:38:25.621Z,19.50
2022-08-25T02:39:25.620Z,20.80
2022-08-25T02:40:25.690Z,21.50
2022-08-25T02:41:31.128Z,21.10
2022-08-25T02:42:25.613Z,21.10
2022-08-25T02:43:25.612Z,21.20
2022-08-25T02:44:25.606Z,20.30
2022-08-25T02:45:25.608Z,19.00
2022-08-25T02:46:25.649Z,18.20
2022-08-25T02:47:27.091Z,18.70
2022-08-25T02:48:25.597Z,16.90
2022-08-25T02:49:25.591Z,16.60
2022-08-25T02:50:25.590Z,16.50
2022-08-25T02:51:25.594Z,16.40
2022-08-25T02:52:25.587Z,16.10
2022-08-25T02:53:25.586Z,15.10
2022-08-25T02:54:25.583Z,15.70
2022-08-25T02:55:25.578Z,15.90
2022-08-25T02:56:25.581Z,15.60
2022-08-25T02:57:25.576Z,16.80
2022-08-25T02:58:25.571Z,16.50
2022-08-25T02:59:25.568Z,16.80
2022-08-25T03:00:25.566Z,16.20
2022-08-25T03:01:28.693Z,15.50
2022-08-25T03:02:25.560Z,15.70
2022-08-25T03:03:25.565Z,17.30
2022-08-25T03:04:25.593Z,19.20
2022-08-25T03:05:25.557Z,19.20
2022-08-25T03:06:25.554Z,20.60
2022-08-25T03:07:25.551Z,20.10
2022-08-25T03:08:25.546Z,21.20
2022-08-25T03:09:25.545Z,22.90
2022-08-25T03:10:25.540Z,24.10
2022-08-25T03:11:25.539Z,24.10
2022-08-25T03:12:25.534Z,25.00
2022-08-25T03:13:25.532Z,24.50
2022-08-25T03:14:25.531Z,25.10
2022-08-25T03:15:25.533Z,25.10
2022-08-25T03:16:27.658Z,24.40
2022-08-25T03:17:25.526Z,23.60
2022-08-25T03:18:25.519Z,26.30
2022-08-25T03:19:25.518Z,22.90
2022-08-25T03:20:25.515Z,24.40
2022-08-25T03:21:25.512Z,23.60
2022-08-25T03:22:25.508Z,22.80
2022-08-25T03:23:25.506Z,20.50
2022-08-25T03:24:25.505Z,20.20
2022-08-25T03:25:25.502Z,21.90
2022-08-25T03:26:25.499Z,22.40
2022-08-25T03:27:25.497Z,22.50
2022-08-25T03:28:30.068Z,23.80
2022-08-25T03:29:25.489Z,25.40
2022-08-25T03:30:25.485Z,26.90
2022-08-25T03:31:25.524Z,28.00
2022-08-25T03:32:25.483Z,27.50
2022-08-25T03:33:25.480Z,29.50
2022-08-25T03:34:25.475Z,30.20
2022-08-25T03:35:25.477Z,29.90
2022-08-25T03:36:25.470Z,33.30
2022-08-25T03:37:25.468Z,31.50
2022-08-25T03:38:25.463Z,29.10
2022-08-25T03:39:25.463Z,30.30
2022-08-25T03:40:25.557Z,31.20
2022-08-25T03:41:25.647Z,33.90
2022-08-25T03:42:25.451Z,34.60
2022-08-25T03:43:25.453Z,35.00
2022-08-25T03:44:25.447Z,37.80
2022-08-25T03:45:25.512Z,38.00
2022-08-25T03:46:25.445Z,38.30
2022-08-25T03:47:25.442Z,40.50
2022-08-25T03:48:25.436Z,39.70
2022-08-25T03:49:25.434Z,44.20
2022-08-25T03:50:25.429Z,45.30
2022-08-25T03:51:25.427Z,46.50
2022-08-25T03:52:25.423Z,47.30
2022-08-25T03:53:25.422Z,49.30
2022-08-25T03:54:25.419Z,49.00
2022-08-25T03:55:25.419Z,48.50
2022-08-25T03:56:25.417Z,48.90
2022-08-25T03:57:25.416Z,50.80
2022-08-25T03:58:25.415Z,49.90
2022-08-25T03:59:25.403Z,49.40
2022-08-25T04:00:25.402Z,49.10
2022-08-25T04:01:25.519Z,49.00
2022-08-25T04:02:25.503Z,49.30
2022-08-25T04:03:25.391Z,50.70
2022-08-25T04:04:25.388Z,51.50
2022-08-25T04:05:26.779Z,49.50
2022-08-25T04:06:25.380Z,47.50
2022-08-25T04:07:25.380Z,48.90
2022-08-25T04:08:25.375Z,49.70
2022-08-25T04:09:25.370Z,50.20
2022-08-25T04:10:25.384Z,47.80
2022-08-25T04:11:25.379Z,47.90
2022-08-25T04:12:25.361Z,50.60
2022-08-25T04:13:25.359Z,49.50
2022-08-25T04:14:25.355Z,49.60
2022-08-25T04:15:28.503Z,48.00
2022-08-25T04:16:25.396Z,51.50
2022-08-25T04:17:25.347Z,50.60
2022-08-25T04:18:25.344Z,50.90
2022-08-25T04:19:25.340Z,51.10
2022-08-25T04:20:25.334Z,51.80
2022-08-25T04:21:25.336Z,51.30
2022-08-25T04:22:25.330Z,51.20
2022-08-25T04:23:25.327Z,53.20
2022-08-25T04:24:25.320Z,55.20
2022-08-25T04:25:25.324Z,54.60
2022-08-25T04:26:25.315Z,53.30
2022-08-25T04:27:25.315Z,54.70
2022-08-25T04:28:25.311Z,54.80
2022-08-25T04:29:25.308Z,52.20
2022-08-25T04:30:25.304Z,53.80
2022-08-25T04:31:25.362Z,54.80
2022-08-25T04:32:25.297Z,52.50
2022-08-25T04:33:25.296Z,52.00
2022-08-25T04:34:29.867Z,51.60
2022-08-25T04:35:25.292Z,54.40
2022-08-25T04:36:25.289Z,54.30
2022-08-25T04:37:25.284Z,56.20
2022-08-25T04:38:25.279Z,53.60
2022-08-25T04:39:25.277Z,55.40
2022-08-25T04:40:29.120Z,54.30
2022-08-25T04:41:25.269Z,55.00
2022-08-25T04:42:25.267Z,56.20
2022-08-25T04:43:25.267Z,57.50
2022-08-25T04:44:25.259Z,55.30
2022-08-25T04:45:25.300Z,56.70
2022-08-25T04:46:25.252Z,56.90
2022-08-25T04:47:25.252Z,57.10
2022-08-25T04:48:25.246Z,55.40
2022-08-25T04:49:25.250Z,57.20
2022-08-25T04:50:25.240Z,54.90
2022-08-25T04:51:25.238Z,56.80
2022-08-25T04:52:25.235Z,57.00
2022-08-25T04:53:25.230Z,58.80
2022-08-25T04:54:25.225Z,54.40
2022-08-25T04:55:25.222Z,56.90
2022-08-25T04:56:25.243Z,59.10
2022-08-25T04:57:25.216Z,57.40
2022-08-25T04:58:25.214Z,55.90
2022-08-25T04:59:29.534Z,55.20
2022-08-25T05:00:25.209Z,57.00
2022-08-25T05:01:25.263Z,52.70
2022-08-25T05:02:25.204Z,54.80
2022-08-25T05:03:25.198Z,54.60
2022-08-25T05:04:28.737Z,54.10
2022-08-25T05:05:25.194Z,51.70
2022-08-25T05:06:25.188Z,51.50
2022-08-25T05:07:25.188Z,49.60
2022-08-25T05:08:25.185Z,48.50
2022-08-25T05:09:25.342Z,46.10
2022-08-25T05:10:25.174Z,48.60
2022-08-25T05:11:25.175Z,48.50
2022-08-25T05:12:25.174Z,48.90
2022-08-25T05:13:25.167Z,46.10
2022-08-25T05:14:26.257Z,46.30
2022-08-25T05:15:25.164Z,47.20
2022-08-25T05:16:25.226Z,52.40
2022-08-25T05:17:25.156Z,49.10
2022-08-25T05:18:25.153Z,49.60
2022-08-25T05:19:25.150Z,54.00
2022-08-25T05:20:25.151Z,49.70
2022-08-25T05:21:25.141Z,45.90
2022-08-25T05:22:25.141Z,52.00
2022-08-25T05:23:25.138Z,53.00
2022-08-25T05:24:25.137Z,54.90
2022-08-25T05:25:25.132Z,55.10
2022-08-25T05:26:25.131Z,54.90
2022-08-25T05:27:25.126Z,54.10
2022-08-25T05:28:25.124Z,52.80
2022-08-25T05:29:25.122Z,52.10
2022-08-25T05:30:25.122Z,48.20
2022-08-25T05:31:25.272Z,49.70
2022-08-25T05:32:25.108Z,49.10
2022-08-25T05:33:25.113Z,46.00
2022-08-25T05:34:25.106Z,48.30
2022-08-25T05:35:25.103Z,45.30
2022-08-25T05:36:25.098Z,44.60
2022-08-25T05:37:25.099Z,45.20
2022-08-25T05:38:25.107Z,45.90
2022-08-25T05:39:25.092Z,46.90
2022-08-25T05:40:25.143Z,45.20
2022-08-25T05:41:25.085Z,47.30
2022-08-25T05:42:25.088Z,46.60
2022-08-25T05:43:25.082Z,47.70
2022-08-25T05:44:25.077Z,48.30
2022-08-25T05:45:25.110Z,48.70
2022-08-25T05:46:25.074Z,49.70
2022-08-25T05:47:25.068Z,48.70
2022-08-25T05:48:25.066Z,50.20
2022-08-25T05:49:25.062Z,49.20
2022-08-25T05:50:25.061Z,48.20
2022-08-25T05:51:25.056Z,48.60
2022-08-25T05:52:25.054Z,49.60
2022-08-25T05:53:25.055Z,48.50
2022-08-25T05:54:25.050Z,49.70
2022-08-25T05:55:25.046Z,51.10
2022-08-25T05:56:25.043Z,49.40
2022-08-25T05:57:25.041Z,49.30
2022-08-25T05:58:25.036Z,50.60
2022-08-25T05:59:25.037Z,49.30
2022-08-25T06:00:25.032Z,53.20
2022-08-25T06:01:25.060Z,52.70
2022-08-25T06:02:25.025Z,49.20
2022-08-25T06:03:25.118Z,50.90
2022-08-25T06:04:25.019Z,51.20
2022-08-25T06:05:25.016Z,49.20
2022-08-25T06:06:25.015Z,50.30
2022-08-25T06:07:25.013Z,50.10
2022-08-25T06:08:25.008Z,51.10
2022-08-25T06:09:25.005Z,49.70
2022-08-25T06:10:25.003Z,50.50
2022-08-25T06:11:25.002Z,52.50
2022-08-25T06:12:24.995Z,49.80
2022-08-25T06:13:28.633Z,51.70
2022-08-25T06:14:24.994Z,50.90
2022-08-25T06:15:24.986Z,51.60
2022-08-25T06:16:25.055Z,49.20
2022-08-25T06:17:24.987Z,48.60
2022-08-25T06:18:24.980Z,47.90
2022-08-25T06:19:24.975Z,45.30
2022-08-25T06:20:25.407Z,46.00
2022-08-25T06:21:24.971Z,48.40
2022-08-25T06:22:24.992Z,45.30
2022-08-25T06:23:24.969Z,46.30
2022-08-25T06:24:24.962Z,44.70
2022-08-25T06:25:24.963Z,45.00
2022-08-25T06:26:24.959Z,43.00
2022-08-25T06:27:24.953Z,43.90
2022-08-25T06:28:24.952Z,43.70
2022-08-25T06:29:24.949Z,45.80
2022-08-25T06:30:28.679Z,44.00
2022-08-25T06:31:24.990Z,43.00
2022-08-25T06:32:24.941Z,43.80
2022-08-25T06:33:24.939Z,43.20
2022-08-25T06:34:24.933Z,43.00
2022-08-25T06:35:24.933Z,41.50
2022-08-25T06:36:24.929Z,40.80
2022-08-25T06:37:25.379Z,40.20
2022-08-25T06:38:24.923Z,38.20
2022-08-25T06:39:24.918Z,35.60
2022-08-25T06:40:25.015Z,35.50
2022-08-25T06:41:24.915Z,34.90
2022-08-25T06:42:24.911Z,33.40
2022-08-25T06:43:24.910Z,31.70
2022-08-25T06:44:24.906Z,31.10
2022-08-25T06:45:24.902Z,31.10
2022-08-25T06:46:34.741Z,30.40
2022-08-25T06:47:25.000Z,30.40
2022-08-25T06:48:24.895Z,30.00
2022-08-25T06:49:24.894Z,30.00
2022-08-25T06:50:24.938Z,29.00
2022-08-25T06:51:24.899Z,28.90
2022-08-25T06:52:28.862Z,30.10
2022-08-25T06:53:24.890Z,29.50
2022-08-25T06:54:24.878Z,29.00
2022-08-25T06:55:24.879Z,30.70
2022-08-25T06:56:24.873Z,28.60
2022-08-25T06:57:24.871Z,29.60
2022-08-25T06:58:24.870Z,28.10
2022-08-25T06:59:24.867Z,26.90
2022-08-25T07:00:30.324Z,27.20
2022-08-25T07:01:25.883Z,26.10
2022-08-25T07:02:24.891Z,26.10
2022-08-25T07:03:24.913Z,27.40
2022-08-25T07:04:24.855Z,27.20
2022-08-25T07:05:33.432Z,26.90
2022-08-25T07:06:24.848Z,27.30
2022-08-25T07:07:24.844Z,28.00
2022-08-25T07:08:24.843Z,27.30
2022-08-25T07:09:24.848Z,26.10
2022-08-25T07:10:24.838Z,24.20
2022-08-25T07:11:24.839Z,23.50
2022-08-25T07:12:24.831Z,23.60
2022-08-25T07:13:24.828Z,23.30
2022-08-25T07:14:24.829Z,22.80
2022-08-25T07:15:24.830Z,22.50
2022-08-25T07:16:29.597Z,24.30
2022-08-25T07:17:24.818Z,24.30
2022-08-25T07:18:24.819Z,24.10
2022-08-25T07:19:24.823Z,24.10
2022-08-25T07:21:27.889Z,22.20
2022-08-25T07:22:24.809Z,25.40
2022-08-25T07:23:24.812Z,26.60
2022-08-25T07:24:24.806Z,25.60
2022-08-25T07:25:24.806Z,24.50
2022-08-25T07:26:37.267Z,25.30
2022-08-25T07:27:24.801Z,24.90
2022-08-25T07:28:25.348Z,24.80
2022-08-25T07:29:31.663Z,24.50
2022-08-25T07:30:24.793Z,24.20
2022-08-25T07:31:28.213Z,24.40
2022-08-25T07:32:24.790Z,25.00
2022-08-25T07:33:24.788Z,24.70
2022-08-25T07:34:25.546Z,26.00
2022-08-25T07:35:26.247Z,25.00
2022-08-25T07:36:24.784Z,25.60
2022-08-25T07:37:47.583Z,24.30
2022-08-25T07:38:24.774Z,24.90
2022-08-25T07:39:24.780Z,24.60
2022-08-25T07:40:24.940Z,25.30
2022-08-25T07:41:24.770Z,25.20
2022-08-25T07:42:24.767Z,24.80
2022-08-25T07:43:24.767Z,24.90
2022-08-25T07:44:24.767Z,24.70
2022-08-25T07:45:24.767Z,24.80
2022-08-25T07:46:24.780Z,24.00
2022-08-25T07:47:24.760Z,25.00
2022-08-25T07:48:24.761Z,23.30
2022-08-25T07:49:24.756Z,23.10
2022-08-25T07:50:24.757Z,21.90
2022-08-25T07:51:24.753Z,22.10
2022-08-25T07:52:24.752Z,22.10
2022-08-25T07:53:24.754Z,21.60
2022-08-25T07:54:24.750Z,20.50
2022-08-25T07:55:24.746Z,20.30
2022-08-25T07:56:24.745Z,22.00
2022-08-25T07:57:24.746Z,23.40
2022-08-25T07:58:24.743Z,20.40
2022-08-25T07:59:24.743Z,20.40
2022-08-25T08:00:24.757Z,19.30
2022-08-25T08:01:24.799Z,20.80
2022-08-25T08:02:24.905Z,21.90
2022-08-25T08:03:44.752Z,21.80
2022-08-25T08:04:24.737Z,21.50
2022-08-25T08:05:24.733Z,21.20
2022-08-25T08:06:24.733Z,21.20
2022-08-25T08:07:41.135Z,21.00
2022-08-25T08:08:24.737Z,21.50
2022-08-25T08:09:24.727Z,20.80
2022-08-25T08:10:48.013Z,20.10
2022-08-25T08:11:24.737Z,20.40
2022-08-25T08:12:24.724Z,20.00
2022-08-25T08:13:24.725Z,20.40
2022-08-25T08:14:24.725Z,20.00
2022-08-25T08:15:24.723Z,20.50
2022-08-25T08:16:24.786Z,20.20
2022-08-25T08:17:24.718Z,21.10
2022-08-25T08:18:24.715Z,21.20
2022-08-25T08:19:24.717Z,19.70
2022-08-25T08:20:24.714Z,21.60
2022-08-25T08:21:24.714Z,21.10
2022-08-25T08:22:24.713Z,22.90
2022-08-25T08:23:24.712Z,22.40
2022-08-25T08:24:44.459Z,23.10
2022-08-25T08:25:26.522Z,22.10
2022-08-25T08:26:36.485Z,22.10
2022-08-25T08:27:24.725Z,23.40
2022-08-25T08:28:24.707Z,22.20
2022-08-25T08:29:24.705Z,23.20
2022-08-25T08:30:26.248Z,24.20
2022-08-25T08:31:24.740Z,22.90
2022-08-25T08:32:31.414Z,21.70
2022-08-25T08:33:24.709Z,21.10
2022-08-25T08:34:25.184Z,20.70
2022-08-25T08:35:24.697Z,20.30
2022-08-25T08:36:25.525Z,20.10
2022-08-25T08:37:24.697Z,21.50
2022-08-25T08:38:27.146Z,21.00
2022-08-25T08:39:24.693Z,19.90
2022-08-25T08:40:24.828Z,19.80
2022-08-25T08:41:24.698Z,19.60
2022-08-25T08:42:24.689Z,19.90
2022-08-25T08:43:25.107Z,19.90
2022-08-25T08:44:24.692Z,19.90
2022-08-25T08:45:24.691Z,20.90
2022-08-25T08:46:26.006Z,21.00
2022-08-25T08:47:24.689Z,21.60
2022-08-25T08:48:24.691Z,20.90
2022-08-25T08:49:26.759Z,21.30
2022-08-25T08:50:27.745Z,19.90
2022-08-25T08:51:24.695Z,19.90
2022-08-25T08:52:24.684Z,20.20
2022-08-25T08:53:24.686Z,21.00
2022-08-25T08:54:24.703Z,20.70
2022-08-25T08:55:24.683Z,19.90
2022-08-25T08:56:24.680Z,20.50
2022-08-25T08:57:24.683Z,19.40
2022-08-25T08:58:26.304Z,20.20
2022-08-25T08:59:30.033Z,20.70
2022-08-25T09:00:24.682Z,20.20
2022-08-25T09:01:24.759Z,19.50
2022-08-25T09:02:38.836Z,19.10
2022-08-25T09:03:24.726Z,21.10
2022-08-25T09:04:24.677Z,20.60
2022-08-25T09:05:24.677Z,19.30
2022-08-25T09:06:24.678Z,20.20
2022-08-25T09:07:24.677Z,19.70
2022-08-25T09:08:24.678Z,19.50
2022-08-25T09:09:24.677Z,20.60
2022-08-25T09:10:24.678Z,19.90
2022-08-25T09:11:24.680Z,18.50
2022-08-25T09:12:24.680Z,19.50
2022-08-25T09:13:26.272Z,18.00
2022-08-25T09:14:30.194Z,17.60
2022-08-25T09:15:24.675Z,17.90
2022-08-25T09:16:33.993Z,17.50
2022-08-25T09:17:24.673Z,18.20
2022-08-25T09:18:24.669Z,18.00
2022-08-25T09:19:24.674Z,17.30
2022-08-25T09:20:24.674Z,17.30
2022-08-25T09:21:24.678Z,18.20
2022-08-25T09:22:33.400Z,18.50
2022-08-25T09:23:24.673Z,17.70
2022-08-25T09:24:24.674Z,16.70
2022-08-25T09:25:39.570Z,17.90
2022-08-25T09:26:24.672Z,17.40
2022-08-25T09:27:24.693Z,16.80
2022-08-25T09:28:24.670Z,17.50
2022-08-25T09:29:25.404Z,16.50
2022-08-25T09:30:25.094Z,17.90
2022-08-25T09:31:29.331Z,16.80
2022-08-25T09:32:31.321Z,17.70
2022-08-25T09:33:24.672Z,15.90
2022-08-25T09:34:24.672Z,17.10
2022-08-25T09:35:24.671Z,16.10
2022-08-25T09:36:24.677Z,17.20
2022-08-25T09:37:24.673Z,15.50
2022-08-25T09:38:24.672Z,16.20
2022-08-25T09:39:24.672Z,15.00
2022-08-25T09:40:24.763Z,15.30
2022-08-25T09:41:24.674Z,14.90
2022-08-25T09:42:24.673Z,16.50
2022-08-25T09:43:24.673Z,17.20
2022-08-25T09:44:26.013Z,18.10
2022-08-25T09:45:24.674Z,19.40
2022-08-25T09:46:26.971Z,19.50
2022-08-25T09:47:24.672Z,19.50
2022-08-25T09:48:24.674Z,17.40
2022-08-25T09:49:24.674Z,17.60
2022-08-25T09:50:24.675Z,18.10
2022-08-25T09:51:24.706Z,18.40
2022-08-25T09:52:25.210Z,18.90
2022-08-25T09:53:24.675Z,18.70
2022-08-25T09:54:25.584Z,19.60
2022-08-25T09:55:24.679Z,18.60
2022-08-25T09:56:24.674Z,18.70
2022-08-25T09:57:24.676Z,19.00
2022-08-25T09:58:24.676Z,18.70
2022-08-25T09:59:34.102Z,19.40
2022-08-25T10:00:24.671Z,18.60
2022-08-25T10:01:24.706Z,17.60
2022-08-25T10:02:24.677Z,18.10
2022-08-25T10:03:25.254Z,18.30
2022-08-25T10:04:24.678Z,18.60
2022-08-25T10:05:24.720Z,18.50
2022-08-25T10:06:24.678Z,18.60
2022-08-25T10:07:24.744Z,18.70
2022-08-25T10:08:24.892Z,18.50
2022-08-25T10:09:24.681Z,18.40
2022-08-25T10:10:24.679Z,17.70
2022-08-25T10:11:24.681Z,17.40
2022-08-25T10:12:24.971Z,17.00
2022-08-25T10:13:24.689Z,16.30
2022-08-25T10:14:24.826Z,16.10
2022-08-25T10:15:29.983Z,15.30
2022-08-25T10:16:25.201Z,14.60
2022-08-25T10:17:24.698Z,13.30
2022-08-25T10:18:25.734Z,10.70
2022-08-25T10:19:24.681Z,9.90
2022-08-25T10:20:24.679Z,9.50
2022-08-25T10:21:24.685Z,8.60
2022-08-25T10:22:24.773Z,8.90
2022-08-25T10:23:24.686Z,10.50
2022-08-25T10:24:24.685Z,10.70
2022-08-25T10:25:24.688Z,12.40
2022-08-25T10:26:24.686Z,11.70
2022-08-25T10:27:25.976Z,12.00
2022-08-25T10:28:24.688Z,10.80
2022-08-25T10:29:24.686Z,9.90
2022-08-25T10:30:24.689Z,10.20
2022-08-25T10:31:24.710Z,9.80
2022-08-25T10:32:24.688Z,9.90
2022-08-25T10:33:24.704Z,9.10
2022-08-25T10:34:24.690Z,9.10
2022-08-25T10:35:24.691Z,8.90
2022-08-25T10:36:24.695Z,8.70
2022-08-25T10:37:24.692Z,8.00
2022-08-25T10:38:27.187Z,7.80
2022-08-25T10:39:33.994Z,7.60
2022-08-25T10:40:24.739Z,8.40
2022-08-25T10:41:24.695Z,7.60
2022-08-25T10:42:25.970Z,7.40
2022-08-25T10:43:24.697Z,7.40
2022-08-25T10:44:24.697Z,8.00
2022-08-25T10:45:24.697Z,7.60
2022-08-25T10:46:24.762Z,7.70
2022-08-25T10:47:24.700Z,8.10
2022-08-25T10:48:24.699Z,7.50
2022-08-25T10:49:24.700Z,7.60
2022-08-25T10:50:24.700Z,7.50
2022-08-25T10:51:25.694Z,7.30
2022-08-25T10:52:24.700Z,7.30
2022-08-25T10:53:24.704Z,6.90
2022-08-25T10:54:24.703Z,6.70
2022-08-25T10:55:24.703Z,6.90
2022-08-25T10:56:24.712Z,6.50
2022-08-25T10:57:24.703Z,6.30
2022-08-25T10:58:24.708Z,6.20
2022-08-25T10:59:24.705Z,6.00
2022-08-25T11:00:28.769Z,5.90
2022-08-25T11:01:28.197Z,5.90
2022-08-25T11:02:24.703Z,5.80
2022-08-25T11:03:25.584Z,5.90
2022-08-25T11:04:25.257Z,5.80
2022-08-25T11:05:25.011Z,5.80
2022-08-25T11:06:24.710Z,6.10
2022-08-25T11:07:24.712Z,5.90
2022-08-25T11:08:24.713Z,5.90
2022-08-25T11:09:24.716Z,6.00
2022-08-25T11:10:24.715Z,6.10
2022-08-25T11:11:24.717Z,5.70
2022-08-25T11:12:24.715Z,6.10
2022-08-25T11:13:24.720Z,5.80
2022-08-25T11:14:24.719Z,6.00
2022-08-25T11:15:24.720Z,5.80
2022-08-25T11:16:24.757Z,5.70
2022-08-25T11:17:24.726Z,5.60
2022-08-25T11:18:24.721Z,5.60
2022-08-25T11:19:24.726Z,5.60
2022-08-25T11:20:27.079Z,5.50
2022-08-25T11:21:24.727Z,5.60
2022-08-25T11:22:24.730Z,5.20
2022-08-25T11:23:24.727Z,5.40
2022-08-25T11:24:24.727Z,5.10
2022-08-25T11:25:24.730Z,5.40
2022-08-25T11:26:28.889Z,5.10
2022-08-25T11:27:24.772Z,5.30
2022-08-25T11:28:24.732Z,5.00
2022-08-25T11:29:24.730Z,5.10
2022-08-25T11:30:25.844Z,5.40
2022-08-25T11:31:24.736Z,5.10
2022-08-25T11:32:24.748Z,5.50
2022-08-25T11:33:24.742Z,5.30
2022-08-25T11:34:24.735Z,5.50
2022-08-25T11:35:24.738Z,5.40
2022-08-25T11:36:24.742Z,5.20
2022-08-25T11:37:24.742Z,5.00
2022-08-25T11:38:24.743Z,5.50
2022-08-25T11:39:24.744Z,5.30
2022-08-25T11:40:24.796Z,5.00
2022-08-25T11:41:24.745Z,5.30
2022-08-25T11:42:24.746Z,5.20
2022-08-25T11:43:24.749Z,4.80
2022-08-25T11:44:24.751Z,5.10
2022-08-25T11:45:24.753Z,5.10
2022-08-25T11:46:26.182Z,5.20
2022-08-25T11:47:24.753Z,5.10
2022-08-25T11:48:24.791Z,5.00
2022-08-25T11:49:24.754Z,5.00
2022-08-25T11:50:25.842Z,4.70
2022-08-25T11:51:24.757Z,5.00
2022-08-25T11:52:28.903Z,5.10
2022-08-25T11:53:26.900Z,5.00
2022-08-25T11:54:24.763Z,5.10
2022-08-25T11:55:24.765Z,4.90
2022-08-25T11:56:24.765Z,5.00
2022-08-25T11:57:24.765Z,4.80
2022-08-25T11:58:24.765Z,4.90
2022-08-25T11:59:24.767Z,4.70
2022-08-25T12:00:24.783Z,4.80
2022-08-25T12:01:24.772Z,5.00
2022-08-25T12:02:24.772Z,5.10
2022-08-25T12:03:24.779Z,5.10
2022-08-25T12:04:24.808Z,5.10
2022-08-25T12:05:24.818Z,5.00
2022-08-25T12:06:24.780Z,5.20
2022-08-25T12:07:24.780Z,4.90
2022-08-25T12:08:24.781Z,4.80
2022-08-25T12:09:24.781Z,4.90
2022-08-25T12:10:24.782Z,5.20
2022-08-25T12:11:24.783Z,5.00
2022-08-25T12:12:24.786Z,5.00
2022-08-25T12:13:24.787Z,4.90
2022-08-25T12:14:24.790Z,4.90
2022-08-25T12:15:24.789Z,4.70
2022-08-25T12:16:24.835Z,4.80
2022-08-25T12:17:24.791Z,4.90
2022-08-25T12:18:24.801Z,4.30
2022-08-25T12:19:24.800Z,4.60
2022-08-25T12:20:24.818Z,4.90
2022-08-25T12:21:24.798Z,5.00
2022-08-25T12:22:24.801Z,4.70
2022-08-25T12:23:24.803Z,5.10
2022-08-25T12:24:24.804Z,5.00
2022-08-25T12:25:24.818Z,4.80
2022-08-25T12:26:24.806Z,4.80
2022-08-25T12:27:24.806Z,4.90
2022-08-25T12:28:24.811Z,4.70
2022-08-25T12:29:24.811Z,4.80
2022-08-25T12:30:26.274Z,4.70
2022-08-25T12:31:24.814Z,4.70
2022-08-25T12:32:24.817Z,4.70
2022-08-25T12:33:24.818Z,4.70
2022-08-25T12:34:26.854Z,4.70
2022-08-25T12:35:24.826Z,4.80
2022-08-25T12:36:24.822Z,4.70
2022-08-25T12:37:24.825Z,4.80
2022-08-25T12:38:24.823Z,4.80
2022-08-25T12:39:24.834Z,4.80
2022-08-25T12:40:24.874Z,4.90
2022-08-25T12:41:24.832Z,4.60
2022-08-25T12:42:26.281Z,4.60
2022-08-25T12:43:25.095Z,4.60
2022-08-25T12:44:24.837Z,4.40
2022-08-25T12:45:24.837Z,4.40
2022-08-25T12:46:24.871Z,4.70
2022-08-25T12:47:24.841Z,4.80
2022-08-25T12:48:24.843Z,4.60
2022-08-25T12:49:24.845Z,4.40
2022-08-25T12:50:24.848Z,4.60
2022-08-25T12:51:24.849Z,4.60
2022-08-25T12:52:27.820Z,4.80
2022-08-25T12:53:24.852Z,4.60
2022-08-25T12:54:24.857Z,4.80
2022-08-25T12:55:24.855Z,4.50
2022-08-25T12:56:24.859Z,4.90
2022-08-25T12:57:25.221Z,4.60
2022-08-25T12:58:31.220Z,4.70